createdAt,value
2019-06-10T00:01:08.691Z,53.78
2019-06-10T00:03:42.125Z,53.69
2019-06-10T00:06:14.453Z,53.88
2019-06-10T00:08:46.405Z,54.15
2019-06-10T00:11:21.047Z,54.19
2019-06-10T00:13:51.729Z,54.19
2019-06-10T00:16:23.693Z,54.81
2019-06-10T00:18:55.572Z,53.19
2019-06-10T00:21:27.454Z,53.73
2019-06-10T00:24:00.118Z,53.51
2019-06-10T00:26:33.234Z,53.88
2019-06-10T00:29:06.300Z,53.72
2019-06-10T00:31:38.855Z,54.56
2019-06-10T00:34:12.361Z,54.13
2019-06-10T00:36:44.365Z,54.13
2019-06-10T00:39:16.307Z,53.60
2019-06-10T00:41:48.207Z,53.98
2019-06-10T00:44:20.679Z,53.60
2019-06-10T00:46:52.626Z,53.34
2019-06-10T00:49:24.647Z,53.69
2019-06-10T00:51:56.621Z,52.84
2019-06-10T00:54:31.042Z,52.35
2019-06-10T00:57:02.856Z,51.46
2019-06-10T00:59:35.944Z,52.32
2019-06-10T01:02:08.766Z,52.44
2019-06-10T01:04:41.644Z,51.49
2019-06-10T01:07:14.905Z,52.07
2019-06-10T01:09:47.043Z,51.97
2019-06-10T01:12:20.991Z,51.76
2019-06-10T01:14:52.510Z,52.42
2019-06-10T01:17:24.559Z,53.03
2019-06-10T01:19:56.462Z,52.54
2019-06-10T01:22:28.337Z,52.64
2019-06-10T01:25:01.641Z,52.98
2019-06-10T01:27:34.760Z,53.46
2019-06-10T01:30:14.849Z,52.30
2019-06-10T01:32:42.619Z,52.88
2019-06-10T01:35:15.816Z,53.05
2019-06-10T01:37:48.613Z,52.55
2019-06-10T01:40:20.997Z,53.35
2019-06-10T01:42:53.507Z,52.77
2019-06-10T01:45:25.314Z,53.36
2019-06-10T01:47:57.123Z,52.84
2019-06-10T01:50:31.078Z,52.94
2019-06-10T01:53:02.643Z,52.91
2019-06-10T01:55:34.623Z,53.55
2019-06-10T01:58:07.762Z,53.35
2019-06-10T02:00:47.580Z,52.48
2019-06-10T02:03:23.772Z,53.55
2019-06-10T02:05:53.472Z,53.46
2019-06-10T02:08:25.399Z,53.42
2019-06-10T02:10:57.272Z,53.01
2019-06-10T02:13:32.432Z,53.77
2019-06-10T02:16:06.130Z,53.80
2019-06-10T02:18:38.116Z,54.15
2019-06-10T02:21:14.316Z,54.01
2019-06-10T02:23:43.736Z,53.82
2019-06-10T02:26:16.840Z,54.06
2019-06-10T02:28:51.245Z,54.36
2019-06-10T02:31:30.384Z,54.41
2019-06-10T02:33:56.502Z,56.17
2019-06-10T02:36:31.413Z,58.03
2019-06-10T02:39:04.562Z,58.67
2019-06-10T02:41:37.571Z,58.29
2019-06-10T02:44:09.542Z,59.26
2019-06-10T02:46:43.935Z,58.91
2019-06-10T02:49:30.012Z,58.62
2019-06-10T02:51:48.711Z,60.67
2019-06-10T02:54:24.055Z,60.66
2019-06-10T02:56:54.231Z,59.77
2019-06-10T02:59:30.030Z,59.76
2019-06-10T03:02:02.895Z,60.10
2019-06-10T03:04:37.655Z,59.06
2019-06-10T03:07:07.143Z,60.33
2019-06-10T03:09:39.210Z,60.34
2019-06-10T03:12:12.186Z,60.77
2019-06-10T03:14:44.160Z,60.46
2019-06-10T03:17:17.809Z,60.11
2019-06-10T03:19:53.005Z,59.64
2019-06-10T03:22:25.676Z,60.24
2019-06-10T03:24:57.227Z,59.78
2019-06-10T03:27:29.194Z,60.10
2019-06-10T03:30:03.101Z,58.75
2019-06-10T03:32:40.694Z,59.38
2019-06-10T03:35:12.985Z,59.37
2019-06-10T03:37:43.380Z,59.59
2019-06-10T03:40:16.450Z,60.28
2019-06-10T03:42:48.565Z,59.25
2019-06-10T03:45:21.811Z,59.54
2019-06-10T03:47:54.277Z,59.26
2019-06-10T03:50:27.489Z,58.92
2019-06-10T03:53:01.325Z,58.75
2019-06-10T03:55:34.423Z,58.19
2019-06-10T03:58:06.365Z,58.69
2019-06-10T04:00:38.241Z,58.40
2019-06-10T04:03:12.156Z,59.02
2019-06-10T04:05:43.923Z,59.12
2019-06-10T04:08:15.945Z,58.15
2019-06-10T04:10:47.746Z,58.26
2019-06-10T04:13:19.745Z,58.66
2019-06-10T04:15:53.471Z,57.29
2019-06-10T04:18:27.876Z,56.40
2019-06-10T04:20:59.024Z,57.65
2019-06-10T04:23:33.205Z,57.63
2019-06-10T04:26:04.599Z,57.82
2019-06-10T04:28:36.525Z,57.23
2019-06-10T04:31:08.409Z,56.67
2019-06-10T04:33:42.064Z,57.15
2019-06-10T04:36:13.954Z,57.37
2019-06-10T04:38:45.834Z,57.79
2019-06-10T04:41:18.352Z,57.70
2019-06-10T04:43:50.400Z,58.11
2019-06-10T04:46:23.703Z,58.69
2019-06-10T04:48:55.783Z,58.38
2019-06-10T04:51:28.451Z,58.94
2019-06-10T04:54:03.062Z,58.94
2019-06-10T04:56:34.816Z,59.19
2019-06-10T04:59:06.638Z,58.86
2019-06-10T05:01:38.624Z,58.91
2019-06-10T05:04:12.544Z,58.90
2019-06-10T05:06:44.284Z,58.55
2019-06-10T05:09:16.257Z,58.51
2019-06-10T05:11:48.320Z,57.91
2019-06-10T05:14:23.439Z,57.07
2019-06-10T05:16:54.462Z,57.19
2019-06-10T05:19:27.910Z,55.68
2019-06-10T05:22:00.213Z,55.85
2019-06-10T05:24:34.362Z,55.71
2019-06-10T05:27:05.806Z,56.07
2019-06-10T05:29:37.688Z,55.46
2019-06-10T05:32:09.709Z,55.93
2019-06-10T05:34:43.708Z,55.64
2019-06-10T05:37:15.219Z,55.09
2019-06-10T05:39:47.100Z,55.57
2019-06-10T05:42:18.989Z,55.35
2019-06-10T05:44:52.461Z,54.90
2019-06-10T05:47:26.638Z,54.52
2019-06-10T05:49:57.890Z,54.59
2019-06-10T05:52:29.759Z,54.02
2019-06-10T05:55:03.016Z,53.87
2019-06-10T05:57:35.614Z,53.86
2019-06-10T06:00:14.610Z,54.04
2019-06-10T06:02:46.300Z,53.77
2019-06-10T06:05:19.047Z,53.92
2019-06-10T06:08:04.122Z,53.60
2019-06-10T06:10:25.117Z,53.64
2019-06-10T06:12:59.846Z,53.12
2019-06-10T06:15:34.512Z,52.89
2019-06-10T06:18:10.072Z,52.48
2019-06-10T06:20:39.021Z,51.23
2019-06-10T06:23:12.241Z,51.57
2019-06-10T06:25:47.035Z,51.64
2019-06-10T06:28:18.582Z,51.28
2019-06-10T06:30:52.688Z,52.73
2019-06-10T06:33:24.169Z,50.72
2019-06-10T06:35:56.068Z,51.05
2019-06-10T06:38:29.305Z,50.62
2019-06-10T06:41:03.195Z,50.61
2019-06-10T06:43:38.926Z,51.66
2019-06-10T06:46:08.490Z,50.55
2019-06-10T06:48:43.773Z,50.17
2019-06-10T06:51:15.372Z,49.50
2019-06-10T06:53:52.038Z,50.43
2019-06-10T06:56:23.030Z,50.25
2019-06-10T06:58:54.439Z,50.05
2019-06-10T07:01:26.313Z,48.92
2019-06-10T07:03:58.279Z,48.08
2019-06-10T07:06:32.921Z,49.47
2019-06-10T07:09:08.221Z,47.57
2019-06-10T07:11:44.756Z,49.37
2019-06-10T07:14:14.626Z,49.35
2019-06-10T07:16:46.907Z,48.71
2019-06-10T07:19:18.972Z,48.77
2019-06-10T07:22:08.891Z,47.73
2019-06-10T07:24:24.424Z,48.90
2019-06-10T07:26:56.325Z,49.30
2019-06-10T07:29:28.225Z,48.83
2019-06-10T07:32:00.104Z,49.90
2019-06-10T07:34:33.953Z,49.75
2019-06-10T07:37:05.779Z,49.99
2019-06-10T07:39:38.361Z,50.92
2019-06-10T07:42:13.496Z,50.75
2019-06-10T07:44:45.382Z,51.35
2019-06-10T07:47:18.628Z,50.27
2019-06-10T07:49:52.240Z,52.21
2019-06-10T07:52:23.963Z,51.52
2019-06-10T07:54:55.784Z,52.24
2019-06-10T07:57:27.634Z,51.73
2019-06-10T07:59:59.645Z,51.22
2019-06-10T08:02:32.304Z,50.15
2019-06-10T08:05:05.898Z,50.04
2019-06-10T08:07:38.846Z,49.98
2019-06-10T08:10:13.106Z,49.13
2019-06-10T08:12:46.636Z,50.42
2019-06-10T08:15:18.166Z,49.55
2019-06-10T08:17:50.128Z,51.54
2019-06-10T08:20:43.513Z,51.30
2019-06-10T08:23:19.897Z,50.37
2019-06-10T08:25:54.704Z,52.44
2019-06-10T08:28:25.572Z,52.63
2019-06-10T08:30:58.465Z,51.40
2019-06-10T08:33:32.822Z,51.90
2019-06-10T08:36:04.287Z,52.18
2019-06-10T08:38:36.385Z,53.33
2019-06-10T08:41:08.381Z,53.48
2019-06-10T08:43:41.378Z,53.64
2019-06-10T08:46:13.976Z,53.68
2019-06-10T08:48:47.760Z,53.34
2019-06-10T08:51:19.554Z,53.80
2019-06-10T08:53:53.139Z,53.10
2019-06-10T08:56:25.000Z,53.07
2019-06-10T08:58:56.882Z,53.41
2019-06-10T09:01:28.939Z,54.39
2019-06-10T09:04:03.188Z,53.42
2019-06-10T09:06:34.589Z,53.23
2019-06-10T09:09:08.590Z,52.81
2019-06-10T09:11:43.268Z,53.39
2019-06-10T09:14:14.189Z,54.45
2019-06-10T09:16:48.860Z,52.70
2019-06-10T09:19:22.094Z,53.78
2019-06-10T09:21:56.279Z,53.25
2019-06-10T09:24:27.029Z,52.58
2019-06-10T09:26:59.141Z,53.17
2019-06-10T09:29:32.871Z,52.40
2019-06-10T09:32:05.117Z,51.80
2019-06-10T09:34:37.122Z,51.38
2019-06-10T09:37:09.095Z,51.39
2019-06-10T09:39:44.220Z,47.93
2019-06-10T09:42:14.709Z,46.78
2019-06-10T09:44:48.708Z,47.79
2019-06-10T09:47:22.712Z,47.27
2019-06-10T09:49:55.832Z,49.13
2019-06-10T09:52:27.741Z,49.37
2019-06-10T09:55:02.197Z,49.11
2019-06-10T09:57:33.217Z,48.34
2019-06-10T10:00:12.461Z,49.97
2019-06-10T10:02:48.241Z,47.18
2019-06-10T10:05:18.398Z,47.99
2019-06-10T10:07:52.965Z,49.83
2019-06-10T10:10:28.467Z,47.06
2019-06-10T10:13:02.563Z,48.31
2019-06-10T10:15:34.638Z,47.34
2019-06-10T10:18:13.209Z,47.10
2019-06-10T10:20:48.065Z,47.76
2019-06-10T10:23:18.994Z,46.90
2019-06-10T10:25:54.816Z,47.20
2019-06-10T10:28:26.443Z,47.30
2019-06-10T10:30:58.916Z,45.81
2019-06-10T10:33:33.370Z,44.46
2019-06-10T10:36:06.678Z,44.86
2019-06-10T10:38:39.055Z,44.92
2019-06-10T10:41:13.259Z,43.96
2019-06-10T10:43:47.422Z,41.06
2019-06-10T10:46:22.943Z,42.37
2019-06-10T10:48:56.470Z,42.25
2019-06-10T10:51:28.834Z,42.93
2019-06-10T10:54:21.161Z,42.76
2019-06-10T10:56:35.115Z,44.24
2019-06-10T10:59:07.717Z,44.22
2019-06-10T11:01:42.760Z,44.82
2019-06-10T11:04:14.586Z,42.80
2019-06-10T11:06:47.803Z,43.57
2019-06-10T11:09:24.993Z,42.27
2019-06-10T11:11:59.697Z,42.10
2019-06-10T11:14:34.007Z,42.41
2019-06-10T11:17:05.347Z,41.14
2019-06-10T11:19:37.392Z,40.95
2019-06-10T11:22:09.287Z,42.28
2019-06-10T11:24:44.504Z,41.73
2019-06-10T11:27:14.814Z,40.62
2019-06-10T11:29:46.712Z,41.43
2019-06-10T11:32:18.739Z,40.21
2019-06-10T11:34:56.512Z,40.01
2019-06-10T11:37:25.414Z,39.01
2019-06-10T11:39:57.435Z,38.25
2019-06-10T11:42:33.269Z,36.28
2019-06-10T11:45:07.581Z,37.82
2019-06-10T11:47:39.468Z,36.19
2019-06-10T11:50:12.177Z,36.74
2019-06-10T11:52:44.392Z,37.37
2019-06-10T11:55:19.389Z,36.20
2019-06-10T11:57:54.948Z,36.33
2019-06-10T12:00:26.796Z,38.22
2019-06-10T12:03:00.777Z,37.81
2019-06-10T12:05:32.874Z,35.60
2019-06-10T12:08:04.913Z,36.60
2019-06-10T12:10:36.883Z,39.21
2019-06-10T12:13:08.989Z,35.65
2019-06-10T12:16:30.652Z,36.24
2019-06-10T12:18:14.916Z,34.09
2019-06-10T12:20:46.728Z,34.10
2019-06-10T12:23:18.688Z,35.09
2019-06-10T12:25:54.234Z,32.52
2019-06-10T12:28:24.453Z,32.66
2019-06-10T12:31:01.118Z,32.83
2019-06-10T12:33:33.321Z,32.11
2019-06-10T12:36:06.589Z,32.67
2019-06-10T12:38:37.507Z,31.82
2019-06-10T12:41:13.078Z,31.82
2019-06-10T12:43:43.566Z,32.20
2019-06-10T12:46:15.550Z,32.53
2019-06-10T12:48:47.661Z,33.33
2019-06-10T12:51:19.608Z,33.33
2019-06-10T12:53:53.190Z,32.36
2019-06-10T12:56:25.247Z,32.55
2019-06-10T12:58:59.707Z,32.34
2019-06-10T13:01:32.988Z,30.07
2019-06-10T13:04:08.007Z,31.00
2019-06-10T13:06:41.875Z,31.37
2019-06-10T13:09:13.769Z,31.30
2019-06-10T13:11:45.559Z,31.30
2019-06-10T13:14:18.354Z,31.52
2019-06-10T13:16:52.451Z,31.52
2019-06-10T13:19:24.021Z,31.10
2019-06-10T13:21:57.174Z,30.62
2019-06-10T13:24:29.345Z,30.42
2019-06-10T13:27:03.436Z,31.07
2019-06-10T13:29:34.966Z,30.80
2019-06-10T13:32:08.129Z,30.42
2019-06-10T13:34:42.422Z,28.88
2019-06-10T13:37:16.167Z,29.69
2019-06-10T13:39:47.466Z,28.93
2019-06-10T13:42:19.427Z,30.53
2019-06-10T13:44:52.411Z,29.17
2019-06-10T13:47:26.549Z,30.03
2019-06-10T13:49:58.965Z,30.13
2019-06-10T13:52:32.129Z,29.55
2019-06-10T13:55:07.817Z,27.37
2019-06-10T13:57:42.634Z,28.14
2019-06-10T14:00:14.680Z,27.77
2019-06-10T14:02:46.722Z,27.87
2019-06-10T14:05:18.729Z,27.54
2019-06-10T14:07:52.094Z,29.23
2019-06-10T14:10:25.015Z,29.15
2019-06-10T14:12:56.892Z,27.68
2019-06-10T14:15:32.742Z,27.80
2019-06-10T14:18:07.008Z,28.86
2019-06-10T14:20:43.064Z,27.67
2019-06-10T14:23:17.328Z,28.39
2019-06-10T14:25:47.127Z,28.19
2019-06-10T14:28:35.881Z,28.23
2019-06-10T14:30:53.723Z,27.32
2019-06-10T14:33:26.071Z,27.52
2019-06-10T14:35:58.205Z,28.08
2019-06-10T14:38:32.531Z,28.93
2019-06-10T14:41:06.584Z,29.17
2019-06-10T14:43:38.581Z,28.16
2019-06-10T14:46:13.555Z,28.40
2019-06-10T14:48:44.268Z,28.95
2019-06-10T14:51:17.311Z,27.85
2019-06-10T14:53:49.667Z,27.78
2019-06-10T14:56:23.340Z,28.00
2019-06-10T14:58:55.270Z,28.02
2019-06-10T15:01:27.333Z,28.40
2019-06-10T15:03:59.279Z,27.47
2019-06-10T15:06:33.836Z,27.18
2019-06-10T15:09:07.646Z,29.34
2019-06-10T15:11:39.606Z,29.08
2019-06-10T15:14:14.171Z,27.69
2019-06-10T15:16:46.230Z,27.17
2019-06-10T15:19:25.268Z,28.27
2019-06-10T15:21:52.386Z,27.66
2019-06-10T15:24:24.353Z,27.63
2019-06-10T15:27:08.867Z,28.16
2019-06-10T15:29:29.887Z,21.13
2019-06-10T15:32:10.243Z,17.48
2019-06-10T15:34:35.533Z,14.11
2019-06-10T15:37:08.827Z,12.73
2019-06-10T15:39:42.396Z,12.91
2019-06-10T15:42:15.626Z,10.68
2019-06-10T15:44:52.291Z,10.08
2019-06-10T15:47:26.230Z,9.02
2019-06-10T15:49:54.924Z,11.42
2019-06-10T15:52:27.054Z,11.19
2019-06-10T15:54:58.945Z,10.62
2019-06-10T15:57:40.685Z,14.52
2019-06-10T16:00:14.237Z,17.21
2019-06-10T16:02:43.002Z,13.68
2019-06-10T16:05:16.130Z,13.06
2019-06-10T16:07:48.694Z,12.77
2019-06-10T16:10:23.675Z,11.65
2019-06-10T16:12:54.500Z,10.96
2019-06-10T16:15:26.930Z,11.05
2019-06-10T16:17:58.948Z,11.20
2019-06-10T16:20:32.363Z,11.78
2019-06-10T16:23:05.952Z,12.55
2019-06-10T16:25:38.059Z,12.52
2019-06-10T16:28:12.647Z,14.84
2019-06-10T16:30:43.920Z,15.57
2019-06-10T16:33:16.551Z,15.81
2019-06-10T16:35:53.103Z,18.76
2019-06-10T16:38:25.788Z,20.19
2019-06-10T16:40:57.869Z,21.48
2019-06-10T16:43:29.999Z,21.95
2019-06-10T16:46:38.061Z,23.41
2019-06-10T16:49:12.566Z,23.31
2019-06-10T16:51:44.173Z,24.98
2019-06-10T16:54:16.057Z,25.01
2019-06-10T16:56:48.056Z,23.14
2019-06-10T16:59:20.014Z,25.34
2019-06-10T17:01:53.162Z,27.67
2019-06-10T17:04:26.195Z,28.87
2019-06-10T17:06:59.013Z,30.17
2019-06-10T17:09:32.873Z,31.53
2019-06-10T17:12:05.140Z,32.62
2019-06-10T17:14:38.550Z,31.66
2019-06-10T17:17:12.744Z,31.28
2019-06-10T17:19:44.039Z,31.83
2019-06-10T17:22:15.982Z,30.53
2019-06-10T17:24:47.952Z,32.35
2019-06-10T17:27:22.286Z,31.59
2019-06-10T17:29:53.555Z,32.56
2019-06-10T17:32:26.757Z,31.69
2019-06-10T17:34:59.090Z,31.30
2019-06-10T17:37:33.643Z,32.26
2019-06-10T17:40:07.048Z,34.11
2019-06-10T17:42:39.038Z,35.36
2019-06-10T17:45:12.804Z,35.10
2019-06-10T17:47:44.933Z,35.71
2019-06-10T17:50:17.180Z,36.88
2019-06-10T17:52:49.176Z,37.23
2019-06-10T17:55:24.876Z,38.38
2019-06-10T17:57:54.729Z,38.38
2019-06-10T18:00:27.919Z,39.55
2019-06-10T18:03:03.489Z,39.32
2019-06-10T18:05:34.161Z,40.62
2019-06-10T18:08:06.205Z,41.12
2019-06-10T18:10:38.208Z,41.89
2019-06-10T18:13:14.032Z,42.18
2019-06-10T18:15:44.159Z,42.79
2019-06-10T18:18:16.051Z,43.85
2019-06-10T18:20:48.029Z,43.39
2019-06-10T18:23:22.918Z,44.28
2019-06-10T18:25:54.391Z,44.39
2019-06-10T18:28:26.953Z,45.00
2019-06-10T18:30:59.003Z,45.61
2019-06-10T18:33:34.456Z,45.26
2019-06-10T18:36:04.705Z,46.15
2019-06-10T18:38:37.343Z,46.26
2019-06-10T18:41:09.426Z,46.55
2019-06-10T18:43:41.489Z,46.82
2019-06-10T18:46:13.441Z,49.29
2019-06-10T18:48:45.375Z,50.01
2019-06-10T18:51:17.392Z,50.59
2019-06-10T18:53:49.455Z,50.25
2019-06-10T18:56:23.163Z,51.27
2019-06-10T18:58:55.091Z,53.32
2019-06-10T19:01:28.227Z,51.77
2019-06-10T19:04:02.638Z,53.27
2019-06-10T19:06:36.478Z,53.81
2019-06-10T19:09:09.526Z,53.81
2019-06-10T19:11:43.391Z,53.69
2019-06-10T19:14:15.030Z,54.55
2019-06-10T19:16:47.001Z,56.04
2019-06-10T19:19:18.910Z,55.64
2019-06-10T19:22:04.702Z,56.32
2019-06-10T19:24:24.482Z,56.61
2019-06-10T19:26:59.977Z,56.04
2019-06-10T19:29:38.191Z,56.39
2019-06-10T19:32:04.166Z,57.41
2019-06-10T19:34:37.408Z,57.62
2019-06-10T19:37:09.689Z,56.52
2019-06-10T19:39:49.404Z,57.42
2019-06-10T19:42:16.612Z,58.54
2019-06-10T19:44:48.646Z,57.87
2019-06-10T19:47:20.626Z,57.74
2019-06-10T19:49:52.587Z,59.75
2019-06-10T19:52:24.550Z,58.44
2019-06-10T19:54:56.613Z,61.17
2019-06-10T19:57:28.566Z,60.09
2019-06-10T20:00:10.758Z,59.18
2019-06-10T20:02:35.836Z,59.39
2019-06-10T20:05:12.328Z,59.29
2019-06-10T20:07:48.477Z,59.98
2019-06-10T20:10:17.690Z,59.56
2019-06-10T20:12:49.659Z,59.64
2019-06-10T20:15:27.034Z,61.15
2019-06-10T20:17:58.999Z,63.06
2019-06-10T20:20:33.295Z,63.90
2019-06-10T20:23:08.533Z,64.08
2019-06-10T20:25:41.025Z,64.31
2019-06-10T20:28:13.413Z,64.90
2019-06-10T20:30:47.760Z,64.97
2019-06-10T20:33:33.690Z,65.93
2019-06-10T20:36:06.893Z,66.26
2019-06-10T20:38:38.214Z,66.81
2019-06-10T20:41:12.571Z,66.08
2019-06-10T20:43:45.894Z,67.34
2019-06-10T20:46:17.672Z,66.55
2019-06-10T20:48:51.234Z,66.30
2019-06-10T20:51:26.889Z,66.65
2019-06-10T20:53:56.919Z,67.73
2019-06-10T20:56:28.863Z,67.84
2019-06-10T20:59:02.839Z,69.02
2019-06-10T21:01:34.601Z,69.16
2019-06-10T21:04:06.661Z,69.07
2019-06-10T21:06:39.464Z,68.30
2019-06-10T21:09:13.404Z,69.07
2019-06-10T21:11:46.995Z,68.73
2019-06-10T21:14:19.533Z,68.67
2019-06-10T21:16:53.575Z,68.96
2019-06-10T21:19:25.151Z,68.95
2019-06-10T21:21:57.064Z,70.86
2019-06-10T21:24:28.984Z,69.91
2019-06-10T21:27:00.943Z,69.03
2019-06-10T21:29:33.008Z,71.55
2019-06-10T21:32:05.040Z,71.45
2019-06-10T21:34:37.922Z,70.75
2019-06-10T21:37:12.109Z,71.08
2019-06-10T21:39:44.795Z,71.94
2019-06-10T21:42:17.279Z,73.04
2019-06-10T21:44:49.983Z,72.04
2019-06-10T21:47:23.389Z,73.03
2019-06-10T21:49:55.459Z,72.55
2019-06-10T21:52:27.365Z,72.50
2019-06-10T21:54:59.345Z,70.62
2019-06-10T21:57:33.171Z,71.31
2019-06-10T22:00:11.390Z,70.86
2019-06-10T22:02:46.642Z,71.48
2019-06-10T22:05:18.544Z,71.01
2019-06-10T22:07:53.227Z,71.49
2019-06-10T22:10:23.944Z,71.25
2019-06-10T22:12:56.162Z,71.88
2019-06-10T22:15:28.138Z,72.05
2019-06-10T22:18:02.163Z,72.27
2019-06-10T22:20:34.324Z,72.45
2019-06-10T22:23:06.351Z,72.38
2019-06-10T22:25:38.403Z,72.54
2019-06-10T22:28:12.662Z,72.69
2019-06-10T22:30:45.138Z,72.31
2019-06-10T22:33:17.091Z,72.46
2019-06-10T22:35:49.547Z,72.51
2019-06-10T22:38:22.180Z,72.08
2019-06-10T22:40:56.884Z,71.32
2019-06-10T22:43:27.987Z,71.73
2019-06-10T22:46:00.130Z,71.77
2019-06-10T22:48:33.303Z,71.68
2019-06-10T22:51:05.445Z,71.05
2019-06-10T22:53:37.600Z,71.74
2019-06-10T22:56:09.559Z,70.36
2019-06-10T22:58:41.630Z,70.87
2019-06-10T23:01:13.590Z,71.78
2019-06-10T23:03:45.703Z,70.44
2019-06-10T23:06:17.665Z,71.25
2019-06-10T23:08:50.320Z,71.78
2019-06-10T23:11:24.079Z,72.90
2019-06-10T23:13:56.876Z,72.16
2019-06-10T23:16:29.593Z,71.96
2019-06-10T23:19:02.986Z,71.37
2019-06-10T23:21:36.292Z,72.08
2019-06-10T23:24:08.261Z,72.16
2019-06-10T23:26:42.351Z,73.72
2019-06-10T23:29:13.890Z,72.99
2019-06-10T23:31:52.234Z,73.07
2019-06-10T23:34:22.466Z,72.22
2019-06-10T23:36:55.350Z,72.68
2019-06-10T23:39:26.829Z,73.13
2019-06-10T23:41:59.574Z,73.83
2019-06-10T23:44:33.011Z,73.20
2019-06-10T23:47:05.171Z,72.39
2019-06-10T23:49:37.207Z,73.05
2019-06-10T23:52:09.360Z,72.94
2019-06-10T23:54:41.367Z,71.73
2019-06-10T23:57:13.265Z,73.29
2019-06-10T23:59:45.175Z,72.95
